Lincoln City, IN

12:33 AM CDT on April 28, 2015 (GMT -0500)
Owensboro-Daviess County | | Change Station
CLOSE
Current Station
Airport
Location: Owensboro,
Elevation: 407 ft
Nearby Weather Stations

Elev 407 ft 37.74 °N, 87.17 °W | Updated 37 minutes ago

Clear
Clear
52 °F
Feels Like 52 °F
N
6
Wind Variable Wind from NNE

Today
High -- | Low -- °F
--% Chance of Precip.
Yesterday
High -- | Low -- °F
Precip. -- in
5:55 AM 7:36 PM
Waxing Gibbous, 71% visible
Pressure 30.06 in
Visibility 10.0 miles
Clouds Clear
Dew Point 39 °F
Humidity 61%
Rainfall 0.00 in
Snow Depth Not available.
UV 0 out of 12
Pollen 10.00 out of 12
Air Quality Not available.
Flu Activity Local Activity
METAR KOWB 280456Z AUTO 03005KT 10SM CLR 11/04 A3006 RMK AO2 T01110038 401830055 SLP178

More Conditions Fewer Conditions

Pressure 30.06 in
Visibility 10.0 miles
Clouds Clear
Dew Point 39 °F
Humidity 61%
Rainfall 0.00 in
Snow Depth Not available.
UV 0 out of 12
Pollen 10.00 out of 12
Air Quality Not available.
Flu Activity Local Activity
METAR KOWB 280456Z AUTO 03005KT 10SM CLR 11/04 A3006 RMK AO2 T01110038 401830055 SLP178

More Conditions Fewer Conditions

10-Day Weather Forecast

Almanac

Astronomy

Apr. 28, 2015 Rise Set
Actual Time
Civil Twilight
Nautical Twilight
Astronomical Twilight
Moon
Length of Visible Light
Length of Day
Tomorrow will be .
, % of the Moon is Illuminated

Today's Extremes

State Highs State Lows

Community

WunderPhotos

Upload Photos

1,817,584 photos uploaded!

WunderBlogs® & News

Nearby

Air Quality

  Air Quality AQ Index Pollutant
Not available.

Snow Depth

Station Depth Elevation

Earthquake Activity

City Distance Mag. Time & Date
Minimum magnitude displayed is 2.5.

Coastal Water Temperatures

Place Temperature

Stations

Nearby Weather Stations

Station Location Temp. Windchill Dew Point Humidity Wind Precip. Elev Updated Type